Time,TemperatureF,DewpointF,PressureIn,WindDirection,WindDirectionDegrees,WindSpeedMPH,WindSpeedGustMPH,Humidity,HourlyPrecipIn,Conditions,Clouds,dailyrainin,SoftwareType,DateUTC
2013-09-18 00:07:00,49.0,42.0,31.46,NNW,346,18.0,23.0,78,0.01,,,0.02,weatherlink.com 1.10,2013-09-18 06:07:00,
2013-09-18 00:22:00,49.1,42.0,31.47,West,277,11.0,21.0,77,0.01,,,0.02,weatherlink.com 1.10,2013-09-18 06:22:00,
2013-09-18 00:37:00,49.5,42.0,31.47,NW,304,15.0,18.0,74,0.01,,,0.02,weatherlink.com 1.10,2013-09-18 06:37:00,
2013-09-18 00:52:00,50.5,41.0,31.47,NNW,336,12.0,16.0,69,0.01,,,0.00,weatherlink.com 1.10,2013-09-18 06:52:00,
2013-09-18 01:07:00,50.5,39.0,31.48,WNW,295,13.0,19.0,66,0.00,,,0.00,weatherlink.com 1.10,2013-09-18 07:07:00,
2013-09-18 01:22:00,49.3,40.0,31.48,NNW,330,9.0,20.0,70,0.00,,,0.00,weatherlink.com 1.10,2013-09-18 07:22:00,
2013-09-18 01:37:00,48.5,40.0,31.49,ESE,121,1.0,12.0,73,0.00,,,0.00,weatherlink.com 1.10,2013-09-18 07:37:00,
2013-09-18 01:52:00,48.0,41.0,31.50,North,9,7.0,11.0,76,0.00,,,0.00,weatherlink.com 1.10,2013-09-18 07:52:00,
2013-09-18 02:07:00,47.6,41.0,31.50,NNE,19,8.0,13.0,79,0.00,,,0.00,weatherlink.com 1.10,2013-09-18 08:07:00,
2013-09-18 02:22:00,47.3,41.0,31.51,ENE,64,0.0,11.0,78,0.00,,,0.00,weatherlink.com 1.10,2013-09-18 08:22:00,
2013-09-18 02:37:00,46.4,42.0,31.52,East,83,5.0,9.0,84,0.00,,,0.00,weatherlink.com 1.10,2013-09-18 08:37:00,
2013-09-18 02:53:00,46.0,42.0,31.52,ESE,119,2.0,6.0,86,0.00,,,0.00,weatherlink.com 1.10,2013-09-18 08:53:00,
2013-09-18 03:08:00,45.7,42.0,31.52,East,84,3.0,7.0,86,0.00,,,0.00,weatherlink.com 1.10,2013-09-18 09:08:00,
2013-09-18 03:23:00,45.5,42.0,31.52,East,83,3.0,6.0,87,0.00,,,0.00,weatherlink.com 1.10,2013-09-18 09:23:00,
2013-09-18 03:38:00,45.7,42.0,31.52,ENE,71,4.0,8.0,86,0.00,,,0.00,weatherlink.com 1.10,2013-09-18 09:38:00,
2013-09-18 03:53:00,45.8,42.0,31.53,East,88,5.0,8.0,86,0.00,,,0.00,weatherlink.com 1.10,2013-09-18 09:53:00,
2013-09-18 04:08:00,45.9,42.0,31.54,ESE,106,2.0,7.0,86,0.00,,,0.00,weatherlink.com 1.10,2013-09-18 10:08:00,
2013-09-18 04:23:00,46.0,42.0,31.54,ESE,107,3.0,7.0,86,0.00,,,0.00,weatherlink.com 1.10,2013-09-18 10:23:00,
2013-09-18 04:38:00,45.8,42.0,31.55,East,99,5.0,8.0,87,0.00,,,0.00,weatherlink.com 1.10,2013-09-18 10:38:00,
2013-09-18 04:53:00,45.7,42.0,31.55,ESE,104,7.0,7.0,88,0.00,,,0.00,weatherlink.com 1.10,2013-09-18 10:53:00,
2013-09-18 05:08:00,45.6,42.0,31.56,ESE,107,2.0,8.0,87,0.00,,,0.00,weatherlink.com 1.10,2013-09-18 11:08:00,
2013-09-18 05:23:00,45.4,42.0,31.57,SE,126,5.0,8.0,89,0.00,,,0.00,weatherlink.com 1.10,2013-09-18 11:23:00,
2013-09-18 05:38:00,45.1,42.0,31.57,SE,139,7.0,8.0,90,0.00,,,0.00,weatherlink.com 1.10,2013-09-18 11:38:00,
2013-09-18 05:53:00,44.7,42.0,31.58,West,279,0.0,9.0,91,0.00,,,0.00,weatherlink.com 1.10,2013-09-18 11:53:00,
2013-09-18 06:08:00,44.9,42.0,31.59,ESE,121,0.0,9.0,89,0.00,,,0.00,weatherlink.com 1.10,2013-09-18 12:08:00,
2013-09-18 06:23:00,44.6,42.0,31.60,East,98,0.0,6.0,90,0.00,,,0.00,weatherlink.com 1.10,2013-09-18 12:23:00,
2013-09-18 06:38:00,44.5,42.0,31.60,East,94,2.0,5.0,89,0.00,,,0.00,weatherlink.com 1.10,2013-09-18 12:38:00,
2013-09-18 06:53:00,44.5,41.0,31.61,SSE,161,0.0,5.0,88,0.00,,,0.00,weatherlink.com 1.10,2013-09-18 12:53:00,
2013-09-18 07:08:00,44.7,41.0,31.61,ESE,119,3.0,8.0,86,0.01,,,0.01,weatherlink.com 1.10,2013-09-18 13:08:00,
2013-09-18 07:23:00,44.8,40.0,31.62,SE,135,4.0,5.0,83,0.01,,,0.01,weatherlink.com 1.10,2013-09-18 13:23:00,
2013-09-18 07:38:00,45.1,40.0,31.62,ENE,73,0.0,4.0,83,0.01,,,0.01,weatherlink.com 1.10,2013-09-18 13:38:00,
2013-09-18 07:53:00,45.0,40.0,31.64,East,83,0.0,3.0,83,0.01,,,0.01,weatherlink.com 1.10,2013-09-18 13:53:00,
2013-09-18 08:08:00,45.2,40.0,31.64,NNE,28,0.0,3.0,82,0.00,,,0.01,weatherlink.com 1.10,2013-09-18 14:08:00,
2013-09-18 08:23:00,45.7,40.0,31.65,West,277,8.0,12.0,79,0.00,,,0.01,weatherlink.com 1.10,2013-09-18 14:23:00,
2013-09-18 08:38:00,45.5,39.0,31.66,NNW,328,12.0,14.0,78,0.00,,,0.01,weatherlink.com 1.10,2013-09-18 14:38:00,
2013-09-18 08:53:00,44.9,39.0,31.66,NW,310,13.0,15.0,80,0.00,,,0.01,weatherlink.com 1.10,2013-09-18 14:53:00,
2013-09-18 09:08:00,44.7,39.0,31.67,NW,316,10.0,17.0,81,0.00,,,0.01,weatherlink.com 1.10,2013-09-18 15:08:00,
2013-09-18 09:23:00,44.7,39.0,31.67,NW,323,11.0,18.0,81,0.00,,,0.01,weatherlink.com 1.10,2013-09-18 15:23:00,
2013-09-18 09:38:00,45.1,39.0,31.67,NW,304,11.0,17.0,80,0.00,,,0.01,weatherlink.com 1.10,2013-09-18 15:38:00,
2013-09-18 09:54:00,45.1,39.0,31.68,NNE,12,7.0,16.0,79,0.00,,,0.01,weatherlink.com 1.10,2013-09-18 15:54:00,
2013-09-18 10:09:00,45.3,39.0,31.68,NNW,327,6.0,13.0,78,0.00,,,0.01,weatherlink.com 1.10,2013-09-18 16:09:00,
2013-09-18 10:24:00,45.6,39.0,31.69,North,360,0.0,13.0,78,0.00,,,0.01,weatherlink.com 1.10,2013-09-18 16:24:00,
2013-09-18 10:39:00,46.1,39.0,31.70,SSE,148,0.0,6.0,77,0.00,,,0.01,weatherlink.com 1.10,2013-09-18 16:39:00,
2013-09-18 10:54:00,46.4,40.0,31.70,SE,144,0.0,9.0,77,0.00,,,0.01,weatherlink.com 1.10,2013-09-18 16:54:00,
2013-09-18 11:09:00,46.7,40.0,31.71,ESE,122,0.0,4.0,76,0.00,,,0.01,weatherlink.com 1.10,2013-09-18 17:09:00,
2013-09-18 11:24:00,47.0,40.0,31.71,SSE,153,0.0,3.0,77,0.00,,,0.01,weatherlink.com 1.10,2013-09-18 17:24:00,
2013-09-18 11:39:00,47.0,39.0,31.72,SSW,205,1.0,2.0,74,0.00,,,0.01,weatherlink.com 1.10,2013-09-18 17:39:00,
2013-09-18 11:54:00,47.0,38.0,31.72,West,278,0.0,4.0,72,0.00,,,0.01,weatherlink.com 1.10,2013-09-18 17:54:00,
2013-09-18 12:09:00,47.2,38.0,31.72,ENE,78,0.0,3.0,71,0.00,,,0.01,weatherlink.com 1.10,2013-09-18 18:09:00,
2013-09-18 12:24:00,47.4,38.0,31.73,SSE,157,8.0,10.0,71,0.00,,,0.01,weatherlink.com 1.10,2013-09-18 18:24:00,
2013-09-18 12:39:00,47.7,38.0,31.73,South,175,5.0,8.0,68,0.00,,,0.01,weatherlink.com 1.10,2013-09-18 18:39:00,
2013-09-18 12:54:00,48.4,37.0,31.73,South,189,6.0,9.0,64,0.00,,,0.01,weatherlink.com 1.10,2013-09-18 18:54:00,
2013-09-18 13:09:00,48.3,37.0,31.74,SSW,205,5.0,9.0,64,0.00,,,0.01,weatherlink.com 1.10,2013-09-18 19:09:00,
2013-09-18 13:24:00,47.8,37.0,31.75,WNW,301,11.0,13.0,66,0.00,,,0.01,weatherlink.com 1.10,2013-09-18 19:24:00,
2013-09-18 13:39:00,47.9,37.0,31.75,NW,312,13.0,14.0,66,0.00,,,0.01,weatherlink.com 1.10,2013-09-18 19:39:00,
2013-09-18 13:54:00,48.0,36.0,31.76,West,261,11.0,17.0,63,0.00,,,0.01,weatherlink.com 1.10,2013-09-18 19:54:00,
2013-09-18 14:09:00,48.3,35.0,31.76,WSW,248,14.0,25.0,60,0.00,,,0.01,weatherlink.com 1.10,2013-09-18 20:09:00,
2013-09-18 14:39:00,48.1,35.0,31.77,WNW,286,14.0,22.0,60,0.00,,,0.01,weatherlink.com 1.10,2013-09-18 20:39:00,
2013-09-18 14:54:00,48.5,35.0,31.78,WNW,295,9.0,14.0,59,0.00,,,0.01,weatherlink.com 1.10,2013-09-18 20:54:00,
2013-09-18 15:09:00,49.5,35.0,31.79,West,268,10.0,18.0,58,0.00,,,0.01,weatherlink.com 1.10,2013-09-18 21:09:00,
2013-09-18 15:24:00,49.5,36.0,31.79,WSW,246,10.0,10.0,60,0.01,,,0.02,weatherlink.com 1.10,2013-09-18 21:24:00,
2013-09-18 15:39:00,49.8,34.0,31.78,WNW,302,15.0,24.0,55,0.01,,,0.02,weatherlink.com 1.10,2013-09-18 21:39:00,
2013-09-18 15:54:00,49.6,34.0,31.79,NW,304,16.0,30.0,55,0.01,,,0.02,weatherlink.com 1.10,2013-09-18 21:54:00,
2013-09-18 16:09:00,49.9,35.0,31.80,NW,313,13.0,28.0,57,0.01,,,0.02,weatherlink.com 1.10,2013-09-18 22:09:00,
2013-09-18 16:24:00,49.3,34.0,31.80,WNW,298,20.0,24.0,57,0.00,,,0.02,weatherlink.com 1.10,2013-09-18 22:24:00,
2013-09-18 16:39:00,49.1,35.0,31.80,WNW,298,8.0,21.0,58,0.00,,,0.02,weatherlink.com 1.10,2013-09-18 22:39:00,
2013-09-18 16:54:00,48.1,35.0,31.81,WNW,289,14.0,23.0,62,0.00,,,0.02,weatherlink.com 1.10,2013-09-18 22:54:00,
2013-09-18 17:09:00,48.1,35.0,31.81,West,281,31.0,31.0,61,0.00,,,0.02,weatherlink.com 1.10,2013-09-18 23:09:00,
2013-09-18 17:24:00,48.1,35.0,31.82,WNW,299,14.0,31.0,61,0.00,,,0.02,weatherlink.com 1.10,2013-09-18 23:24:00,
2013-09-18 17:39:00,47.8,36.0,31.83,NW,305,13.0,27.0,64,0.00,,,0.02,weatherlink.com 1.10,2013-09-18 23:39:00,
2013-09-18 17:54:00,47.0,36.0,31.84,West,278,18.0,24.0,66,0.00,,,0.02,weatherlink.com 1.10,2013-09-18 23:54:00,
2013-09-18 18:09:00,47.0,36.0,31.85,NW,304,22.0,24.0,66,0.00,,,0.02,weatherlink.com 1.10,2013-09-19 00:09:00,
2013-09-18 18:24:00,47.3,36.0,31.85,West,272,10.0,21.0,64,0.00,,,0.02,weatherlink.com 1.10,2013-09-19 00:24:00,
2013-09-18 18:39:00,47.9,35.0,31.85,WNW,290,9.0,20.0,62,0.00,,,0.02,weatherlink.com 1.10,2013-09-19 00:39:00,
2013-09-18 18:55:00,49.5,34.0,31.86,WSW,246,11.0,26.0,56,0.00,,,0.02,weatherlink.com 1.10,2013-09-19 00:55:00,
2013-09-18 19:09:00,48.7,34.0,31.86,WNW,282,7.0,12.0,58,0.00,,,0.02,weatherlink.com 1.10,2013-09-19 01:09:00,
2013-09-18 19:25:00,48.2,35.0,31.87,South,175,2.0,8.0,60,0.00,,,0.02,weatherlink.com 1.10,2013-09-19 01:25:00,
2013-09-18 19:40:00,47.7,36.0,31.88,South,189,0.0,8.0,64,0.00,,,0.02,weatherlink.com 1.10,2013-09-19 01:40:00,
2013-09-18 19:55:00,47.2,35.0,31.89,NW,325,1.0,5.0,64,0.00,,,0.02,weatherlink.com 1.10,2013-09-19 01:55:00,
2013-09-18 20:10:00,47.3,35.0,31.91,WNW,300,0.0,6.0,63,0.00,,,0.02,weatherlink.com 1.10,2013-09-19 02:10:00,
2013-09-18 20:25:00,47.7,35.0,31.91,West,274,11.0,15.0,62,0.00,,,0.02,weatherlink.com 1.10,2013-09-19 02:25:00,
2013-09-18 20:40:00,47.8,35.0,31.93,WNW,290,6.0,16.0,61,0.00,,,0.02,weatherlink.com 1.10,2013-09-19 02:40:00,
2013-09-18 20:55:00,48.0,35.0,31.93,SW,228,2.0,17.0,60,0.00,,,0.02,weatherlink.com 1.10,2013-09-19 02:55:00,
2013-09-18 21:10:00,47.9,35.0,31.93,NW,323,10.0,15.0,62,0.00,,,0.02,weatherlink.com 1.10,2013-09-19 03:10:00,
2013-09-18 21:25:00,47.3,36.0,31.95,NW,323,13.0,19.0,65,0.00,,,0.02,weatherlink.com 1.10,2013-09-19 03:25:00,
2013-09-18 21:40:00,47.0,36.0,31.95,NW,317,14.0,20.0,66,0.00,,,0.02,weatherlink.com 1.10,2013-09-19 03:40:00,
2013-09-18 21:55:00,46.9,36.0,31.95,WNW,292,8.0,18.0,66,0.00,,,0.02,weatherlink.com 1.10,2013-09-19 03:55:00,
2013-09-18 22:10:00,46.9,36.0,31.96,WNW,302,8.0,16.0,66,0.00,,,0.02,weatherlink.com 1.10,2013-09-19 04:10:00,
2013-09-18 22:25:00,46.9,36.0,31.96,WNW,290,3.0,14.0,66,0.00,,,0.02,weatherlink.com 1.10,2013-09-19 04:25:00,
2013-09-18 22:40:00,46.3,36.0,31.97,East,97,6.0,7.0,68,0.00,,,0.02,weatherlink.com 1.10,2013-09-19 04:40:00,
2013-09-18 22:55:00,45.6,37.0,31.97,East,98,2.0,6.0,71,0.00,,,0.02,weatherlink.com 1.10,2013-09-19 04:55:00,
2013-09-18 23:10:00,45.5,37.0,31.98,ESE,111,4.0,5.0,71,0.00,,,0.02,weatherlink.com 1.10,2013-09-19 05:10:00,
2013-09-18 23:25:00,45.3,37.0,31.98,ESE,115,5.0,6.0,72,0.00,,,0.02,weatherlink.com 1.10,2013-09-19 05:25:00,
2013-09-18 23:40:00,45.1,37.0,31.99,East,86,3.0,8.0,73,0.00,,,0.02,weatherlink.com 1.10,2013-09-19 05:40:00,
2013-09-18 23:55:00,45.0,37.0,32.00,ENE,78,5.0,8.0,73,0.00,,,0.02,weatherlink.com 1.10,2013-09-19 05:55:00,